createdAt,value
2022-09-11T00:00:51.543Z,13.30
2022-09-11T00:03:19.951Z,13.40
2022-09-11T00:05:46.895Z,13.40
2022-09-11T00:08:15.139Z,13.40
2022-09-11T00:10:43.288Z,13.40
2022-09-11T00:13:11.019Z,13.30
2022-09-11T00:15:41.245Z,13.40
2022-09-11T00:18:10.043Z,13.40
2022-09-11T00:20:38.262Z,13.30
2022-09-11T00:23:05.663Z,13.40
2022-09-11T00:25:35.840Z,13.40
2022-09-11T00:28:02.998Z,13.40
2022-09-11T00:30:29.965Z,13.40
2022-09-11T00:32:56.743Z,13.40
2022-09-11T00:35:24.346Z,13.30
2022-09-11T00:37:51.732Z,13.40
2022-09-11T00:40:18.967Z,13.40
2022-09-11T00:42:51.278Z,13.40
2022-09-11T00:45:23.925Z,13.50
2022-09-11T00:47:51.927Z,13.40
2022-09-11T00:50:22.033Z,13.40
2022-09-11T00:52:53.890Z,13.40
2022-09-11T00:55:22.157Z,13.40
2022-09-11T00:57:52.328Z,13.40
2022-09-11T01:00:19.672Z,13.40
2022-09-11T01:02:48.304Z,13.40
2022-09-11T01:05:16.643Z,13.40
2022-09-11T01:07:45.655Z,13.40
2022-09-11T01:10:12.770Z,13.40
2022-09-11T01:12:53.647Z,13.30
2022-09-11T01:15:31.133Z,13.30
2022-09-11T01:18:07.031Z,13.40
2022-09-11T01:20:49.189Z,13.40
2022-09-11T01:23:16.209Z,13.40
2022-09-11T01:25:49.202Z,13.30
2022-09-11T01:28:19.934Z,13.30
2022-09-11T01:30:50.558Z,13.40
2022-09-11T01:33:34.978Z,13.30
2022-09-11T01:36:05.106Z,13.30
2022-09-11T01:38:31.994Z,13.40
2022-09-11T01:41:08.148Z,13.30
2022-09-11T01:43:38.085Z,13.30
2022-09-11T01:46:07.374Z,13.30
2022-09-11T01:48:46.586Z,13.30
2022-09-11T01:51:16.012Z,13.30
2022-09-11T01:53:50.017Z,13.30
2022-09-11T01:56:21.058Z,13.30
2022-09-11T01:58:48.880Z,13.20
2022-09-11T02:01:23.416Z,13.20
2022-09-11T02:03:58.907Z,13.20
2022-09-11T02:06:28.994Z,13.20
2022-09-11T02:08:59.014Z,13.20
2022-09-11T02:11:26.189Z,13.20
2022-09-11T02:14:22.475Z,13.20
2022-09-11T02:16:51.992Z,13.20
2022-09-11T02:19:20.031Z,13.20
2022-09-11T02:21:51.281Z,13.20
2022-09-11T02:24:19.368Z,13.20
2022-09-11T02:26:48.380Z,13.20
2022-09-11T02:29:15.542Z,13.20
2022-09-11T02:31:42.824Z,13.20
2022-09-11T02:34:11.588Z,13.20
2022-09-11T02:36:45.264Z,13.20
2022-09-11T02:39:47.202Z,13.20
2022-09-11T02:42:32.660Z,13.20
2022-09-11T02:45:17.873Z,13.20
2022-09-11T02:47:59.976Z,13.20
2022-09-11T02:50:31.452Z,13.20
2022-09-11T02:53:07.732Z,13.20
2022-09-11T02:55:50.190Z,13.10
2022-09-11T02:58:23.484Z,13.10
2022-09-11T03:00:50.544Z,13.10
2022-09-11T03:03:18.121Z,13.10
2022-09-11T03:05:44.966Z,13.10
2022-09-11T03:08:12.164Z,13.10
2022-09-11T03:10:39.277Z,13.10
2022-09-11T03:13:06.171Z,13.20
2022-09-11T03:15:34.579Z,13.10
2022-09-11T03:18:01.643Z,13.10
2022-09-11T03:20:28.532Z,13.10
2022-09-11T03:22:55.339Z,13.10
2022-09-11T03:25:23.882Z,13.10
2022-09-11T03:27:50.834Z,13.10
2022-09-11T03:30:17.963Z,13.10
2022-09-11T03:32:44.763Z,13.10
2022-09-11T03:35:11.784Z,13.10
2022-09-11T03:37:38.612Z,13.20
2022-09-11T03:40:06.128Z,13.20
2022-09-11T03:42:33.599Z,13.20
2022-09-11T03:45:00.517Z,13.20
2022-09-11T03:47:27.402Z,13.20
2022-09-11T03:49:55.272Z,13.20
2022-09-11T03:52:23.218Z,13.20
2022-09-11T03:54:50.138Z,13.20
2022-09-11T03:57:16.923Z,13.20
2022-09-11T03:59:43.880Z,13.30
2022-09-11T04:02:10.804Z,13.20
2022-09-11T04:04:38.071Z,13.30
2022-09-11T04:07:04.988Z,13.20
2022-09-11T04:09:31.909Z,13.20
2022-09-11T04:11:58.946Z,13.20
2022-09-11T04:14:25.930Z,13.30
2022-09-11T04:16:53.845Z,13.30
2022-09-11T04:19:21.760Z,13.30
2022-09-11T04:21:48.591Z,13.30
2022-09-11T04:24:15.450Z,13.30
2022-09-11T04:26:42.537Z,13.30
2022-09-11T04:29:09.327Z,13.20
2022-09-11T04:31:36.695Z,13.30
2022-09-11T04:34:03.866Z,13.40
2022-09-11T04:36:30.720Z,13.40
2022-09-11T04:38:58.395Z,13.40
2022-09-11T04:41:25.722Z,13.40
2022-09-11T04:43:59.035Z,13.30
2022-09-11T04:46:28.584Z,13.30
2022-09-11T04:48:56.570Z,13.40
2022-09-11T04:51:25.698Z,13.40
2022-09-11T04:53:53.152Z,13.50
2022-09-11T04:56:21.339Z,13.50
2022-09-11T04:58:53.957Z,13.50
2022-09-11T05:01:21.071Z,13.50
2022-09-11T05:03:48.266Z,13.50
2022-09-11T05:06:18.058Z,13.50
2022-09-11T05:08:45.445Z,13.50
2022-09-11T05:11:13.620Z,13.40
2022-09-11T05:13:40.894Z,13.40
2022-09-11T05:16:11.873Z,13.40
2022-09-11T05:18:40.198Z,13.40
2022-09-11T05:21:10.156Z,13.50
2022-09-11T05:23:36.988Z,13.40
2022-09-11T05:26:05.014Z,13.50
2022-09-11T05:28:32.310Z,13.50
2022-09-11T05:30:59.878Z,13.50
2022-09-11T05:33:27.353Z,13.50
2022-09-11T05:35:54.888Z,13.60
2022-09-11T05:38:22.958Z,13.70
2022-09-11T05:40:51.290Z,13.60
2022-09-11T05:43:19.793Z,13.60
2022-09-11T05:45:54.235Z,13.60
2022-09-11T05:48:21.247Z,13.60
2022-09-11T05:50:59.800Z,13.60
2022-09-11T05:53:27.721Z,13.60
2022-09-11T05:55:55.258Z,13.70
2022-09-11T05:58:22.945Z,13.70
2022-09-11T06:00:49.940Z,13.70
2022-09-11T06:03:17.560Z,13.80
2022-09-11T06:05:44.636Z,13.70
2022-09-11T06:08:11.865Z,13.70
2022-09-11T06:10:46.824Z,13.70
2022-09-11T06:13:13.901Z,13.80
2022-09-11T06:15:47.426Z,13.70
2022-09-11T06:18:14.887Z,13.80
2022-09-11T06:20:42.008Z,13.70
2022-09-11T06:23:10.399Z,13.70
2022-09-11T06:25:37.476Z,13.70
2022-09-11T06:28:04.546Z,13.80
2022-09-11T06:30:31.628Z,13.80
2022-09-11T06:32:59.333Z,13.80
2022-09-11T06:35:26.538Z,13.80
2022-09-11T06:37:53.371Z,13.80
2022-09-11T06:40:20.475Z,13.90
2022-09-11T06:42:47.588Z,13.90
2022-09-11T06:45:14.727Z,13.90
2022-09-11T06:47:41.628Z,14.00
2022-09-11T06:50:08.578Z,14.00
2022-09-11T06:52:35.612Z,14.00
2022-09-11T06:55:02.556Z,14.00
2022-09-11T06:57:29.464Z,14.10
2022-09-11T06:59:58.000Z,14.10
2022-09-11T07:02:25.883Z,14.10
2022-09-11T07:04:53.374Z,14.20
2022-09-11T07:07:20.341Z,14.30
2022-09-11T07:09:47.128Z,14.40
2022-09-11T07:12:14.128Z,14.40
2022-09-11T07:14:41.647Z,14.50
2022-09-11T07:17:08.541Z,14.60
2022-09-11T07:19:36.082Z,14.60
2022-09-11T07:22:03.103Z,14.60
2022-09-11T07:24:29.920Z,14.60
2022-09-11T07:26:56.797Z,14.70
2022-09-11T07:29:24.009Z,14.60
2022-09-11T07:31:50.820Z,14.60
2022-09-11T07:34:17.861Z,14.60
2022-09-11T07:36:45.700Z,14.70
2022-09-11T07:39:12.677Z,14.80
2022-09-11T07:41:39.637Z,14.80
2022-09-11T07:44:07.422Z,14.80
2022-09-11T07:46:34.310Z,14.90
2022-09-11T07:49:02.979Z,14.90
2022-09-11T07:51:29.916Z,14.90
2022-09-11T07:53:57.995Z,14.90
2022-09-11T07:56:25.455Z,14.90
2022-09-11T07:58:52.974Z,14.90
2022-09-11T08:01:21.511Z,14.90
2022-09-11T08:03:49.461Z,14.90
2022-09-11T08:06:22.183Z,15.00
2022-09-11T08:08:52.586Z,15.00
2022-09-11T08:11:19.891Z,15.10
2022-09-11T08:13:53.800Z,15.00
2022-09-11T08:16:21.495Z,15.10
2022-09-11T08:18:48.660Z,15.10
2022-09-11T08:21:15.910Z,15.10
2022-09-11T08:23:43.560Z,15.10
2022-09-11T08:26:10.324Z,15.10
2022-09-11T08:28:37.872Z,15.10
2022-09-11T08:31:06.299Z,15.20
2022-09-11T08:33:36.172Z,15.10
2022-09-11T08:36:08.413Z,15.20
2022-09-11T08:38:35.445Z,15.20
2022-09-11T08:41:20.991Z,15.20
2022-09-11T08:43:51.433Z,15.20
2022-09-11T08:46:21.192Z,15.40
2022-09-11T08:49:04.315Z,15.30
2022-09-11T08:51:31.968Z,15.20
2022-09-11T08:53:59.811Z,15.20
2022-09-11T08:56:29.366Z,15.30
2022-09-11T08:59:05.328Z,15.30
2022-09-11T09:01:37.325Z,15.40
2022-09-11T09:04:24.411Z,15.50
2022-09-11T09:06:59.371Z,15.60
2022-09-11T09:09:34.334Z,15.70
2022-09-11T09:12:24.056Z,15.70
2022-09-11T09:14:56.907Z,15.70
2022-09-11T09:17:41.641Z,15.70
2022-09-11T09:20:14.245Z,15.70
2022-09-11T09:22:41.240Z,15.70
2022-09-11T09:25:12.169Z,15.80
2022-09-11T09:27:42.387Z,15.80
2022-09-11T09:30:19.639Z,15.90
2022-09-11T09:32:53.353Z,15.80
2022-09-11T09:35:23.610Z,15.80
2022-09-11T09:37:51.063Z,15.90
2022-09-11T09:40:18.881Z,16.00
2022-09-11T09:42:45.659Z,15.90
2022-09-11T09:45:31.465Z,16.00
2022-09-11T09:47:58.799Z,16.00
2022-09-11T09:50:28.460Z,16.00
2022-09-11T09:53:03.508Z,16.10
2022-09-11T09:55:30.792Z,16.10
2022-09-11T09:57:58.047Z,16.20
2022-09-11T10:00:25.035Z,16.10
2022-09-11T10:02:55.218Z,16.10
2022-09-11T10:05:22.042Z,16.20
2022-09-11T10:07:57.257Z,16.20
2022-09-11T10:10:25.608Z,16.30
2022-09-11T10:13:07.548Z,16.30
2022-09-11T10:15:40.809Z,16.30
2022-09-11T10:18:26.606Z,16.30
2022-09-11T10:21:01.445Z,16.30
2022-09-11T10:23:29.712Z,16.40
2022-09-11T10:25:56.549Z,16.40
2022-09-11T10:28:29.045Z,16.40
2022-09-11T10:31:00.581Z,16.40
2022-09-11T10:33:29.584Z,16.50
2022-09-11T10:35:56.924Z,16.50
2022-09-11T10:38:29.509Z,16.40
2022-09-11T10:40:59.190Z,16.50
2022-09-11T10:43:28.887Z,16.60
2022-09-11T10:46:06.651Z,16.50
2022-09-11T10:48:33.940Z,16.50
2022-09-11T10:51:05.499Z,16.50
2022-09-11T10:53:37.835Z,16.50
2022-09-11T10:56:06.184Z,16.60
2022-09-11T10:58:36.891Z,16.50
2022-09-11T11:01:04.077Z,16.50
2022-09-11T11:03:31.106Z,16.40
2022-09-11T11:06:04.199Z,16.50
2022-09-11T11:08:42.273Z,16.50
2022-09-11T11:11:18.739Z,16.40
2022-09-11T11:13:56.853Z,16.50
2022-09-11T11:16:27.370Z,16.50
2022-09-11T11:18:54.141Z,16.40
2022-09-11T11:21:45.069Z,16.50
2022-09-11T11:24:18.259Z,16.60
2022-09-11T11:26:57.583Z,16.70
2022-09-11T11:29:28.671Z,16.80
2022-09-11T11:32:09.704Z,16.80
2022-09-11T11:34:45.467Z,16.70
2022-09-11T11:37:21.471Z,16.90
2022-09-11T11:39:57.430Z,17.00
2022-09-11T11:42:28.834Z,17.00
2022-09-11T11:44:58.817Z,17.00
2022-09-11T11:47:30.105Z,17.10
2022-09-11T11:49:56.878Z,17.10
2022-09-11T11:52:32.670Z,17.10
2022-09-11T11:55:13.701Z,17.10
2022-09-11T11:57:41.878Z,17.10
2022-09-11T12:00:14.013Z,17.10
2022-09-11T12:02:47.039Z,17.10
2022-09-11T12:05:17.254Z,17.10
2022-09-11T12:07:46.768Z,17.10
2022-09-11T12:10:28.636Z,17.20
2022-09-11T12:13:15.689Z,17.30
2022-09-11T12:16:01.791Z,17.30
2022-09-11T12:18:29.214Z,17.20
2022-09-11T12:21:14.729Z,17.20
2022-09-11T12:23:50.737Z,17.20
2022-09-11T12:26:22.395Z,17.20
2022-09-11T12:28:50.091Z,17.20
2022-09-11T12:31:18.092Z,17.30
2022-09-11T12:33:46.129Z,17.40
2022-09-11T12:36:13.068Z,17.50
2022-09-11T12:38:42.026Z,17.50
2022-09-11T12:41:14.238Z,17.50
2022-09-11T12:43:44.140Z,17.60
2022-09-11T12:46:20.246Z,17.60
2022-09-11T12:49:20.439Z,17.60
2022-09-11T12:51:51.815Z,17.60
2022-09-11T12:54:23.822Z,17.60
2022-09-11T12:56:52.901Z,17.50
2022-09-11T12:59:25.286Z,17.60
2022-09-11T13:01:52.744Z,17.50
2022-09-11T13:04:24.360Z,17.60
2022-09-11T13:06:54.939Z,17.70
2022-09-11T13:09:42.406Z,17.70
2022-09-11T13:12:18.195Z,17.60
2022-09-11T13:14:46.887Z,17.60
2022-09-11T13:17:15.400Z,17.60
2022-09-11T13:19:42.313Z,17.60
2022-09-11T13:22:22.709Z,17.50
2022-09-11T13:24:50.036Z,17.60
2022-09-11T13:27:21.305Z,17.60
2022-09-11T13:29:48.498Z,17.50
2022-09-11T13:32:16.330Z,17.40
2022-09-11T13:34:43.834Z,17.40
2022-09-11T13:37:15.710Z,17.40
2022-09-11T13:39:43.641Z,17.40
2022-09-11T13:42:14.571Z,17.40
2022-09-11T13:44:42.945Z,17.40
2022-09-11T13:47:36.637Z,17.40
2022-09-11T13:50:06.123Z,17.40
2022-09-11T13:52:34.168Z,17.40
2022-09-11T13:55:04.629Z,17.30
2022-09-11T13:57:32.148Z,17.30
2022-09-11T14:00:00.712Z,17.30
2022-09-11T14:02:27.584Z,17.30
2022-09-11T14:04:59.870Z,17.30
2022-09-11T14:07:26.856Z,17.30
2022-09-11T14:10:05.057Z,17.40
2022-09-11T14:12:33.507Z,17.50
2022-09-11T14:15:11.073Z,17.50
2022-09-11T14:17:40.589Z,17.50
2022-09-11T14:20:13.675Z,17.50
2022-09-11T14:22:40.597Z,17.60
2022-09-11T14:25:10.885Z,17.60
2022-09-11T14:27:41.965Z,17.60
2022-09-11T14:30:28.412Z,17.50
2022-09-11T14:33:10.440Z,17.50
2022-09-11T14:35:37.245Z,17.50
2022-09-11T14:38:04.096Z,17.50
2022-09-11T14:40:30.914Z,17.40
2022-09-11T14:42:57.939Z,17.40
2022-09-11T14:45:26.296Z,17.30
2022-09-11T14:47:53.562Z,17.30
2022-09-11T14:50:21.303Z,17.40
2022-09-11T14:52:48.176Z,17.40
2022-09-11T14:55:16.678Z,17.50
2022-09-11T14:57:43.579Z,17.50
2022-09-11T15:00:13.496Z,17.50
2022-09-11T15:02:40.523Z,17.50
2022-09-11T15:05:15.705Z,17.40
2022-09-11T15:07:45.617Z,17.40
2022-09-11T15:10:13.664Z,17.50
2022-09-11T15:12:40.808Z,17.60
2022-09-11T15:15:08.067Z,17.50
2022-09-11T15:17:36.428Z,17.50
2022-09-11T15:20:09.315Z,17.50
2022-09-11T15:22:37.359Z,17.50
2022-09-11T15:25:04.534Z,17.50
2022-09-11T15:27:31.592Z,17.50
2022-09-11T15:29:58.552Z,17.40
2022-09-11T15:32:25.654Z,17.40
2022-09-11T15:34:54.920Z,17.30
2022-09-11T15:37:21.786Z,17.40
2022-09-11T15:39:49.823Z,17.50
2022-09-11T15:42:16.949Z,17.40
2022-09-11T15:44:45.237Z,17.40
2022-09-11T15:47:13.769Z,17.30
2022-09-11T15:49:42.070Z,17.30
2022-09-11T15:52:09.191Z,17.20
2022-09-11T15:54:36.243Z,17.20
2022-09-11T15:57:03.113Z,17.10
2022-09-11T15:59:30.104Z,17.10
2022-09-11T16:01:57.007Z,17.00
2022-09-11T16:04:25.713Z,17.00
2022-09-11T16:06:54.515Z,16.90
2022-09-11T16:09:23.018Z,16.90
2022-09-11T16:11:50.631Z,16.90
2022-09-11T16:14:18.291Z,16.80
2022-09-11T16:16:47.258Z,16.70
2022-09-11T16:19:14.866Z,16.70
2022-09-11T16:21:41.729Z,16.70
2022-09-11T16:24:10.037Z,16.70
2022-09-11T16:26:38.475Z,16.60
2022-09-11T16:29:09.812Z,16.60
2022-09-11T16:31:36.808Z,16.60
2022-09-11T16:34:04.339Z,16.60
2022-09-11T16:36:38.371Z,16.50
2022-09-11T16:39:09.059Z,16.50
2022-09-11T16:41:37.206Z,16.40
2022-09-11T16:44:04.738Z,16.50
2022-09-11T16:46:33.474Z,16.50
2022-09-11T16:49:02.160Z,16.40
2022-09-11T16:51:29.838Z,16.30
2022-09-11T16:53:57.099Z,16.30
2022-09-11T16:56:24.560Z,16.30
2022-09-11T16:58:51.824Z,16.40
2022-09-11T17:01:20.410Z,16.30
2022-09-11T17:03:49.123Z,16.30
2022-09-11T17:06:16.879Z,16.20
2022-09-11T17:08:44.733Z,16.20
2022-09-11T17:11:13.945Z,16.20
2022-09-11T17:13:43.851Z,16.20
2022-09-11T17:16:16.180Z,16.10
2022-09-11T17:18:51.224Z,16.00
2022-09-11T17:21:18.092Z,16.00
2022-09-11T17:23:45.583Z,15.90
2022-09-11T17:26:13.366Z,15.90
2022-09-11T17:28:40.733Z,15.90
2022-09-11T17:31:08.997Z,15.80
2022-09-11T17:33:37.903Z,15.80
2022-09-11T17:36:05.230Z,15.80
2022-09-11T17:38:32.419Z,15.80
2022-09-11T17:40:59.967Z,15.70
2022-09-11T17:43:26.834Z,15.60
2022-09-11T17:46:00.130Z,15.60
2022-09-11T17:48:27.202Z,15.50
2022-09-11T17:51:04.190Z,15.30
2022-09-11T17:53:35.284Z,15.30
2022-09-11T17:56:06.527Z,15.20
2022-09-11T17:58:33.976Z,15.10
2022-09-11T18:01:01.023Z,15.00
2022-09-11T18:03:28.910Z,14.90
2022-09-11T18:05:56.446Z,14.90
2022-09-11T18:08:23.583Z,14.80
2022-09-11T18:10:51.443Z,14.70
2022-09-11T18:13:18.776Z,14.70
2022-09-11T18:15:47.115Z,14.60
2022-09-11T18:18:15.234Z,14.50
2022-09-11T18:20:43.298Z,14.40
2022-09-11T18:23:11.568Z,14.40
2022-09-11T18:25:39.843Z,14.30
2022-09-11T18:28:07.337Z,14.20
2022-09-11T18:30:34.958Z,14.20
2022-09-11T18:33:01.848Z,14.10
2022-09-11T18:35:28.863Z,14.00
2022-09-11T18:37:55.913Z,14.00
2022-09-11T18:40:23.060Z,13.90
2022-09-11T18:42:50.514Z,13.70
2022-09-11T18:45:17.556Z,13.70
2022-09-11T18:47:48.427Z,13.60
2022-09-11T18:50:15.239Z,13.60
2022-09-11T18:52:42.110Z,13.60
2022-09-11T18:55:09.488Z,13.50
2022-09-11T18:57:41.164Z,13.40
2022-09-11T19:00:14.075Z,13.40
2022-09-11T19:02:41.007Z,13.30
2022-09-11T19:05:08.068Z,13.20
2022-09-11T19:07:34.924Z,13.20
2022-09-11T19:10:01.916Z,13.10
2022-09-11T19:12:28.769Z,13.00
2022-09-11T19:14:55.837Z,12.90
2022-09-11T19:17:23.419Z,12.80
2022-09-11T19:19:51.826Z,12.70
2022-09-11T19:22:22.813Z,12.70
2022-09-11T19:24:49.838Z,12.60
2022-09-11T19:27:17.176Z,12.50
2022-09-11T19:29:44.291Z,12.40
2022-09-11T19:32:11.100Z,12.30
2022-09-11T19:34:46.320Z,12.20
2022-09-11T19:37:14.550Z,12.10
2022-09-11T19:39:41.453Z,12.20
2022-09-11T19:42:09.481Z,12.20
2022-09-11T19:44:36.580Z,12.10
2022-09-11T19:47:03.591Z,12.10
2022-09-11T19:49:30.605Z,12.00
2022-09-11T19:52:00.287Z,11.90
2022-09-11T19:54:27.352Z,11.90
2022-09-11T19:56:54.494Z,11.80
2022-09-11T19:59:21.351Z,11.70
2022-09-11T20:01:48.369Z,11.70
2022-09-11T20:04:17.675Z,11.50
2022-09-11T20:09:30.518Z,11.30
2022-09-11T20:11:57.968Z,11.30
2022-09-11T20:14:24.918Z,11.20
2022-09-11T20:16:51.846Z,11.20
2022-09-11T20:19:20.241Z,11.10
2022-09-11T20:21:47.243Z,11.10
2022-09-11T20:24:15.059Z,11.10
2022-09-11T20:26:42.313Z,11.00
2022-09-11T20:29:12.305Z,11.00
2022-09-11T20:31:46.938Z,11.00
2022-09-11T20:34:15.936Z,10.90
2022-09-11T20:36:42.752Z,10.80
2022-09-11T20:39:10.918Z,10.80
2022-09-11T20:41:37.806Z,10.70
2022-09-11T20:44:04.774Z,10.70
2022-09-11T20:46:32.054Z,10.70
2022-09-11T20:49:00.520Z,10.60
2022-09-11T20:51:27.929Z,10.60
2022-09-11T20:53:55.501Z,10.60
2022-09-11T20:56:23.877Z,10.60
2022-09-11T20:58:51.370Z,10.50
2022-09-11T21:01:22.397Z,10.50
2022-09-11T21:03:50.731Z,10.40
2022-09-11T21:06:20.003Z,10.50
2022-09-11T21:08:50.682Z,10.40
2022-09-11T21:11:17.613Z,10.40
2022-09-11T21:13:44.672Z,10.30
2022-09-11T21:16:13.009Z,10.30
2022-09-11T21:18:40.746Z,10.20
2022-09-11T21:21:07.910Z,10.20
2022-09-11T21:23:34.948Z,10.10
2022-09-11T21:26:01.913Z,10.10
2022-09-11T21:28:29.380Z,10.00
2022-09-11T21:30:57.515Z,9.90
2022-09-11T21:33:24.403Z,9.90
2022-09-11T21:35:54.647Z,9.90
2022-09-11T21:38:22.251Z,9.90
2022-09-11T21:40:49.066Z,9.80
2022-09-11T21:43:16.129Z,9.70
2022-09-11T21:45:43.194Z,9.60
2022-09-11T21:48:09.993Z,9.60
2022-09-11T21:50:37.144Z,9.60
2022-09-11T21:53:04.546Z,9.60
2022-09-11T21:55:31.448Z,9.60
2022-09-11T21:57:59.498Z,9.60
2022-09-11T22:00:26.633Z,9.60
2022-09-11T22:02:53.461Z,9.60
2022-09-11T22:05:20.694Z,9.50
2022-09-11T22:07:48.771Z,9.40
2022-09-11T22:10:15.686Z,9.30
2022-09-11T22:12:42.615Z,9.20
2022-09-11T22:15:10.182Z,9.00
2022-09-11T22:17:37.108Z,9.00
2022-09-11T22:20:04.680Z,9.00
2022-09-11T22:22:31.650Z,9.10
2022-09-11T22:24:58.464Z,9.10
2022-09-11T22:27:25.245Z,9.10
2022-09-11T22:29:53.019Z,9.10
2022-09-11T22:32:20.102Z,9.10
2022-09-11T22:34:46.883Z,9.10
2022-09-11T22:37:13.798Z,9.10
2022-09-11T22:39:40.684Z,9.00
2022-09-11T22:42:07.666Z,9.00
2022-09-11T22:44:34.651Z,9.00
2022-09-11T22:47:01.585Z,8.90
2022-09-11T22:49:28.486Z,8.90
2022-09-11T22:51:55.344Z,9.00
2022-09-11T22:54:22.283Z,8.90
2022-09-11T22:56:49.296Z,9.00
2022-09-11T22:59:16.223Z,9.00
2022-09-11T23:01:43.442Z,8.90
2022-09-11T23:04:10.283Z,8.90
2022-09-11T23:06:55.681Z,9.00
2022-09-11T23:09:22.773Z,9.00
2022-09-11T23:11:49.757Z,8.90
2022-09-11T23:14:16.656Z,8.90
2022-09-11T23:16:44.040Z,8.80
2022-09-11T23:19:12.273Z,8.80
2022-09-11T23:21:39.033Z,8.80
2022-09-11T23:24:10.894Z,8.70
2022-09-11T23:26:37.888Z,8.70
2022-09-11T23:29:04.747Z,8.70
2022-09-11T23:31:32.824Z,8.80
2022-09-11T23:34:05.003Z,8.80
2022-09-11T23:36:31.933Z,8.80
2022-09-11T23:38:59.271Z,8.80
2022-09-11T23:41:26.227Z,8.80
2022-09-11T23:43:53.223Z,8.90
2022-09-11T23:46:20.172Z,8.80
2022-09-11T23:48:47.158Z,8.80
2022-09-11T23:51:15.345Z,8.80
2022-09-11T23:53:45.086Z,8.80
2022-09-11T23:56:14.466Z,8.80
2022-09-11T23:58:41.845Z,8.80
